createdAt,value
2023-05-19T00:02:21.742Z,60.68
2023-05-19T00:05:07.708Z,60.62
2023-05-19T00:07:57.447Z,60.97
2023-05-19T00:10:43.478Z,60.81
2023-05-19T00:13:29.377Z,61.08
2023-05-19T00:16:14.895Z,60.97
2023-05-19T00:19:01.566Z,61.29
2023-05-19T00:21:46.974Z,61.16
2023-05-19T00:24:32.357Z,61.21
2023-05-19T00:27:17.500Z,61.07
2023-05-19T00:30:02.986Z,61.22
2023-05-19T00:32:48.782Z,61.26
2023-05-19T00:35:34.110Z,61.48
2023-05-19T00:38:19.468Z,61.52
2023-05-19T00:41:06.287Z,61.45
2023-05-19T00:43:52.021Z,61.46
2023-05-19T00:46:38.062Z,61.55
2023-05-19T00:49:23.570Z,61.21
2023-05-19T00:52:08.853Z,61.57
2023-05-19T00:54:55.753Z,61.59
2023-05-19T00:57:42.822Z,61.67
2023-05-19T01:00:28.277Z,61.27
2023-05-19T01:03:15.143Z,61.72
2023-05-19T01:06:04.843Z,61.61
2023-05-19T01:08:51.553Z,61.56
2023-05-19T01:11:37.014Z,61.30
2023-05-19T01:14:22.633Z,61.56
2023-05-19T01:17:20.612Z,61.04
2023-05-19T01:20:16.074Z,61.35
2023-05-19T01:23:18.022Z,61.11
2023-05-19T01:26:16.319Z,61.11
2023-05-19T01:29:32.036Z,61.03
2023-05-19T01:32:21.008Z,61.09
2023-05-19T01:35:09.086Z,61.40
2023-05-19T01:37:57.293Z,61.34
2023-05-19T01:40:43.855Z,61.06
2023-05-19T01:43:29.425Z,61.02
2023-05-19T01:46:15.668Z,61.65
2023-05-19T01:49:01.875Z,61.51
2023-05-19T01:51:47.336Z,62.12
2023-05-19T01:54:32.698Z,62.32
2023-05-19T01:57:51.613Z,63.04
2023-05-19T02:00:39.636Z,63.34
2023-05-19T02:03:38.503Z,63.17
2023-05-19T02:06:49.739Z,63.56
2023-05-19T02:09:44.853Z,63.86
2023-05-19T02:12:40.098Z,64.12
2023-05-19T02:15:29.970Z,64.17
2023-05-19T02:18:17.851Z,63.86
2023-05-19T02:21:03.236Z,64.05
2023-05-19T02:23:50.676Z,64.26
2023-05-19T02:26:38.289Z,64.65
2023-05-19T02:29:23.557Z,64.37
2023-05-19T02:32:09.473Z,64.93
2023-05-19T02:34:56.421Z,64.84
2023-05-19T02:37:41.664Z,65.00
2023-05-19T02:40:26.922Z,65.39
2023-05-19T02:43:12.111Z,65.20
2023-05-19T02:45:57.338Z,64.70
2023-05-19T02:48:44.686Z,64.67
2023-05-19T02:51:30.041Z,64.54
2023-05-19T02:54:15.646Z,63.96
2023-05-19T02:57:01.375Z,64.20
2023-05-19T02:59:47.194Z,64.07
2023-05-19T03:02:34.099Z,63.92
2023-05-19T03:05:20.064Z,63.88
2023-05-19T03:08:06.163Z,63.66
2023-05-19T03:10:51.657Z,63.96
2023-05-19T03:13:37.154Z,64.16
2023-05-19T03:16:22.812Z,63.84
2023-05-19T03:19:09.228Z,63.68
2023-05-19T03:21:56.321Z,63.88
2023-05-19T03:24:42.125Z,63.48
2023-05-19T03:27:27.104Z,63.93
2023-05-19T03:30:13.500Z,63.66
2023-05-19T03:33:12.167Z,63.92
2023-05-19T03:35:59.008Z,63.82
2023-05-19T03:38:49.562Z,63.84
2023-05-19T03:41:34.839Z,63.68
2023-05-19T03:44:21.235Z,64.03
2023-05-19T03:47:06.981Z,63.58
2023-05-19T03:50:17.357Z,63.72
2023-05-19T03:53:20.832Z,63.62
2023-05-19T03:56:07.568Z,63.19
2023-05-19T03:58:54.707Z,63.13
2023-05-19T04:01:39.902Z,63.11
2023-05-19T04:04:25.594Z,62.75
2023-05-19T04:07:11.675Z,63.03
2023-05-19T04:09:57.245Z,62.31
2023-05-19T04:12:42.559Z,61.92
2023-05-19T04:15:28.213Z,61.32
2023-05-19T04:18:13.867Z,61.29
2023-05-19T04:20:59.365Z,61.35
2023-05-19T04:23:44.695Z,61.16
2023-05-19T04:26:30.991Z,60.71
2023-05-19T04:29:17.936Z,60.48
2023-05-19T04:32:07.748Z,60.39
2023-05-19T04:34:53.805Z,60.33
2023-05-19T04:37:45.967Z,60.50
2023-05-19T04:40:33.560Z,60.53
2023-05-19T04:43:19.310Z,59.88
2023-05-19T04:46:06.157Z,59.83
2023-05-19T04:48:53.113Z,59.84
2023-05-19T04:51:41.307Z,59.52
2023-05-19T04:54:27.671Z,59.51
2023-05-19T04:57:14.523Z,59.41
2023-05-19T05:00:02.444Z,59.02
2023-05-19T05:02:57.589Z,59.18
2023-05-19T05:05:44.415Z,58.86
2023-05-19T05:08:30.195Z,59.45
2023-05-19T05:11:15.948Z,59.53
2023-05-19T05:14:01.824Z,59.73
2023-05-19T05:16:49.469Z,59.69
2023-05-19T05:19:40.708Z,59.51
2023-05-19T05:22:26.442Z,59.73
2023-05-19T05:25:13.178Z,59.59
2023-05-19T05:27:59.951Z,60.05
2023-05-19T05:30:46.316Z,60.13
2023-05-19T05:33:33.245Z,59.87
2023-05-19T05:36:19.008Z,59.87
2023-05-19T05:39:05.585Z,59.43
2023-05-19T05:41:51.433Z,58.98
2023-05-19T05:44:36.820Z,59.46
2023-05-19T05:47:24.389Z,58.72
2023-05-19T05:50:11.015Z,58.79
2023-05-19T05:52:59.590Z,58.78
2023-05-19T05:55:49.322Z,58.93
2023-05-19T05:58:37.329Z,58.93
2023-05-19T06:01:23.992Z,58.59
2023-05-19T06:04:10.466Z,58.19
2023-05-19T06:07:00.814Z,56.92
2023-05-19T06:09:49.384Z,56.72
2023-05-19T06:12:35.281Z,56.97
2023-05-19T06:15:22.027Z,57.63
2023-05-19T06:18:33.479Z,57.86
2023-05-19T06:21:19.403Z,57.27
2023-05-19T06:24:04.935Z,56.67
2023-05-19T06:26:50.100Z,56.71
2023-05-19T06:29:37.193Z,56.67
2023-05-19T06:32:25.098Z,56.98
2023-05-19T06:35:11.134Z,56.80
2023-05-19T06:37:59.649Z,55.81
2023-05-19T06:40:45.053Z,54.55
2023-05-19T06:43:30.333Z,55.04
2023-05-19T06:46:20.539Z,54.91
2023-05-19T06:49:05.877Z,54.86
2023-05-19T06:51:56.360Z,54.61
2023-05-19T06:54:41.533Z,54.61
2023-05-19T06:57:28.293Z,54.28
2023-05-19T07:00:30.577Z,53.56
2023-05-19T07:03:19.031Z,53.79
2023-05-19T07:06:07.080Z,53.57
2023-05-19T07:08:53.599Z,53.94
2023-05-19T07:11:39.554Z,53.26
2023-05-19T07:14:25.665Z,53.04
2023-05-19T07:17:11.006Z,53.11
2023-05-19T07:20:01.572Z,52.44
2023-05-19T07:22:47.317Z,51.95
2023-05-19T07:25:33.544Z,50.91
2023-05-19T07:28:18.711Z,50.75
2023-05-19T07:31:04.195Z,51.19
2023-05-19T07:33:49.561Z,50.76
2023-05-19T07:36:35.949Z,50.30
2023-05-19T07:39:21.408Z,50.74
2023-05-19T07:42:06.608Z,50.93
2023-05-19T07:44:51.915Z,50.32
2023-05-19T07:47:39.794Z,50.31
2023-05-19T07:50:25.438Z,49.68
2023-05-19T07:53:11.121Z,48.92
2023-05-19T07:55:58.359Z,48.10
2023-05-19T07:58:44.918Z,47.98
2023-05-19T08:01:32.123Z,48.26
2023-05-19T08:04:17.332Z,47.44
2023-05-19T08:07:03.423Z,47.11
2023-05-19T08:09:48.713Z,46.77
2023-05-19T08:12:34.107Z,46.44
2023-05-19T08:15:20.135Z,45.18
2023-05-19T08:18:05.542Z,44.79
2023-05-19T08:20:50.982Z,44.43
2023-05-19T08:23:37.295Z,44.73
2023-05-19T08:26:22.834Z,44.49
2023-05-19T08:29:08.271Z,44.04
2023-05-19T08:31:53.901Z,44.13
2023-05-19T08:34:39.381Z,43.99
2023-05-19T08:37:24.911Z,43.23
2023-05-19T08:40:17.293Z,42.97
2023-05-19T08:43:02.282Z,42.20
2023-05-19T08:45:48.288Z,41.86
2023-05-19T08:48:35.342Z,40.64
2023-05-19T08:52:00.496Z,41.72
2023-05-19T08:55:09.525Z,42.06
2023-05-19T08:57:56.086Z,41.93
2023-05-19T09:00:42.461Z,42.73
2023-05-19T09:03:29.123Z,42.06
2023-05-19T09:06:14.400Z,41.23
2023-05-19T09:08:59.986Z,41.83
2023-05-19T09:11:46.935Z,41.72
2023-05-19T09:14:33.024Z,41.81
2023-05-19T09:17:18.940Z,41.31
2023-05-19T09:20:10.746Z,40.66
2023-05-19T09:22:57.324Z,40.38
2023-05-19T09:25:50.592Z,39.64
2023-05-19T09:28:36.904Z,39.93
2023-05-19T09:31:22.516Z,39.56
2023-05-19T09:34:14.403Z,39.24
2023-05-19T09:36:59.945Z,38.57
2023-05-19T09:39:49.218Z,39.46
2023-05-19T09:42:37.859Z,39.13
2023-05-19T09:45:23.193Z,39.23
2023-05-19T09:48:08.714Z,38.45
2023-05-19T09:50:54.572Z,37.97
2023-05-19T09:53:39.835Z,38.42
2023-05-19T09:56:25.489Z,37.79
2023-05-19T09:59:15.323Z,38.20
2023-05-19T10:02:01.270Z,38.08
2023-05-19T10:04:46.686Z,38.61
2023-05-19T10:07:33.637Z,39.18
2023-05-19T10:10:22.582Z,38.88
2023-05-19T10:13:08.157Z,38.13
2023-05-19T10:15:58.975Z,38.63
2023-05-19T10:18:45.778Z,37.45
2023-05-19T10:21:31.190Z,36.72
2023-05-19T10:24:17.662Z,36.16
2023-05-19T10:27:08.331Z,35.56
2023-05-19T10:29:57.578Z,34.98
2023-05-19T10:32:45.207Z,35.19
2023-05-19T10:35:50.589Z,35.25
2023-05-19T10:38:52.773Z,35.15
2023-05-19T10:42:12.335Z,34.99
2023-05-19T10:45:03.774Z,35.08
2023-05-19T10:47:51.604Z,35.22
2023-05-19T10:50:39.603Z,34.61
2023-05-19T10:53:31.993Z,34.84
2023-05-19T10:56:33.795Z,34.66
2023-05-19T10:59:35.552Z,34.41
2023-05-19T11:02:41.452Z,35.03
2023-05-19T11:05:30.155Z,35.58
2023-05-19T11:08:17.400Z,35.59
2023-05-19T11:11:16.816Z,36.01
2023-05-19T11:14:02.073Z,35.88
2023-05-19T11:16:48.938Z,35.46
2023-05-19T11:19:37.283Z,35.40
2023-05-19T11:22:25.776Z,34.32
2023-05-19T11:25:11.359Z,34.04
2023-05-19T11:27:57.872Z,33.55
2023-05-19T11:30:45.842Z,34.19
2023-05-19T11:33:32.491Z,35.03
2023-05-19T11:36:18.420Z,34.83
2023-05-19T11:39:04.430Z,34.59
2023-05-19T11:41:51.513Z,34.74
2023-05-19T11:44:38.664Z,34.87
2023-05-19T11:47:24.168Z,35.17
2023-05-19T11:50:12.737Z,35.35
2023-05-19T11:53:00.089Z,34.90
2023-05-19T11:55:47.155Z,34.98
2023-05-19T11:58:32.770Z,34.66
2023-05-19T12:01:17.896Z,34.36
2023-05-19T12:04:08.396Z,34.69
2023-05-19T12:06:54.395Z,34.95
2023-05-19T12:09:40.275Z,34.89
2023-05-19T12:12:26.085Z,34.59
2023-05-19T12:15:11.693Z,34.37
2023-05-19T12:17:59.032Z,34.37
2023-05-19T12:20:44.708Z,33.82
2023-05-19T12:23:30.808Z,33.48
2023-05-19T12:26:15.961Z,33.76
2023-05-19T12:29:01.531Z,34.11
2023-05-19T12:31:47.386Z,33.74
2023-05-19T12:34:32.642Z,33.46
2023-05-19T12:37:19.403Z,33.17
2023-05-19T12:40:05.410Z,33.31
2023-05-19T12:42:53.267Z,33.64
2023-05-19T12:45:42.553Z,34.20
2023-05-19T12:48:28.498Z,34.16
2023-05-19T12:51:18.798Z,33.66
2023-05-19T12:54:07.318Z,34.28
2023-05-19T12:56:52.640Z,34.43
2023-05-19T12:59:38.835Z,34.04
2023-05-19T13:02:24.676Z,34.91
2023-05-19T13:05:10.005Z,34.94
2023-05-19T13:08:00.168Z,35.32
2023-05-19T13:10:46.764Z,35.57
2023-05-19T13:13:32.787Z,35.70
2023-05-19T13:16:17.886Z,34.97
2023-05-19T13:19:03.331Z,34.30
2023-05-19T13:21:50.453Z,34.92
2023-05-19T13:24:35.522Z,35.33
2023-05-19T13:27:20.982Z,35.33
2023-05-19T13:30:08.882Z,35.28
2023-05-19T13:32:54.073Z,34.82
2023-05-19T13:35:40.123Z,35.55
2023-05-19T13:38:25.305Z,34.99
2023-05-19T13:41:10.947Z,35.38
2023-05-19T13:43:59.765Z,35.59
2023-05-19T13:46:47.405Z,35.54
2023-05-19T13:49:33.722Z,35.01
2023-05-19T13:52:21.131Z,34.73
2023-05-19T13:55:07.530Z,35.04
2023-05-19T13:57:53.158Z,35.59
2023-05-19T14:00:39.035Z,36.45
2023-05-19T14:03:25.155Z,36.59
2023-05-19T14:06:10.927Z,36.58
2023-05-19T14:08:56.418Z,36.67
2023-05-19T14:11:42.456Z,37.10
2023-05-19T14:14:27.758Z,36.98
2023-05-19T14:17:12.953Z,36.50
2023-05-19T14:19:58.134Z,36.50
2023-05-19T14:22:43.401Z,36.65
2023-05-19T14:25:28.826Z,37.06
2023-05-19T14:28:14.114Z,37.37
2023-05-19T14:30:59.324Z,37.02
2023-05-19T14:33:45.004Z,36.70
2023-05-19T14:36:30.204Z,36.73
2023-05-19T14:39:15.698Z,36.60
2023-05-19T14:42:01.290Z,36.59
2023-05-19T14:44:46.425Z,37.04
2023-05-19T14:47:31.800Z,37.96
2023-05-19T14:50:17.175Z,38.41
2023-05-19T14:53:02.350Z,38.54
2023-05-19T14:55:49.511Z,38.56
2023-05-19T14:58:34.771Z,38.02
2023-05-19T15:01:20.197Z,38.13
2023-05-19T15:04:05.801Z,37.86
2023-05-19T15:07:05.782Z,37.97
2023-05-19T15:09:55.482Z,38.38
2023-05-19T15:12:40.581Z,38.24
2023-05-19T15:15:26.717Z,38.33
2023-05-19T15:18:12.987Z,38.14
2023-05-19T15:20:58.016Z,38.43
2023-05-19T15:23:43.465Z,39.03
2023-05-19T15:26:29.745Z,38.80
2023-05-19T15:29:15.485Z,39.19
2023-05-19T15:32:00.935Z,39.63
2023-05-19T15:34:46.120Z,39.86
2023-05-19T15:37:31.172Z,39.66
2023-05-19T15:40:16.685Z,39.54
2023-05-19T15:43:01.994Z,39.13
2023-05-19T15:45:48.196Z,39.14
2023-05-19T15:48:33.385Z,39.40
2023-05-19T15:51:18.652Z,39.33
2023-05-19T15:54:04.163Z,39.32
2023-05-19T15:56:49.391Z,39.17
2023-05-19T15:59:34.854Z,38.59
2023-05-19T16:02:20.190Z,38.97
2023-05-19T16:05:05.482Z,39.69
2023-05-19T16:07:50.633Z,39.71
2023-05-19T16:10:36.043Z,39.57
2023-05-19T16:13:21.912Z,39.48
2023-05-19T16:16:07.689Z,39.12
2023-05-19T16:18:53.076Z,38.89
2023-05-19T16:21:38.429Z,38.96
2023-05-19T16:24:24.090Z,39.17
2023-05-19T16:27:09.697Z,39.24
2023-05-19T16:29:55.181Z,39.15
2023-05-19T16:32:40.632Z,38.91
2023-05-19T16:35:27.719Z,39.20
2023-05-19T16:38:13.119Z,39.20
2023-05-19T16:40:58.470Z,39.20
2023-05-19T16:43:43.757Z,39.65
2023-05-19T16:46:31.472Z,39.63
2023-05-19T16:49:16.967Z,39.56
2023-05-19T16:52:02.389Z,39.78
2023-05-19T16:54:47.630Z,39.76
2023-05-19T16:57:47.164Z,40.00
2023-05-19T17:00:32.522Z,40.38
2023-05-19T17:03:18.355Z,40.22
2023-05-19T17:06:04.045Z,40.40
2023-05-19T17:08:49.194Z,40.31
2023-05-19T17:11:34.340Z,40.96
2023-05-19T17:14:19.864Z,41.49
2023-05-19T17:17:05.134Z,41.71
2023-05-19T17:19:50.833Z,41.85
2023-05-19T17:22:36.526Z,41.89
2023-05-19T17:25:21.973Z,41.80
2023-05-19T17:28:07.472Z,42.24
2023-05-19T17:30:52.693Z,42.02
2023-05-19T17:33:38.565Z,42.60
2023-05-19T17:36:24.011Z,42.21
2023-05-19T17:39:09.271Z,42.28
2023-05-19T17:41:54.552Z,42.60
2023-05-19T17:44:39.956Z,42.63
2023-05-19T17:47:25.647Z,42.82
2023-05-19T17:50:11.350Z,42.97
2023-05-19T17:52:56.948Z,43.04
2023-05-19T17:55:49.796Z,43.11
2023-05-19T17:58:35.995Z,42.86
2023-05-19T18:01:23.999Z,42.85
2023-05-19T18:04:09.815Z,43.01
2023-05-19T18:06:56.512Z,42.90
2023-05-19T18:09:47.764Z,43.27
2023-05-19T18:12:33.181Z,42.99
2023-05-19T18:15:18.300Z,42.84
2023-05-19T18:18:05.558Z,43.49
2023-05-19T18:20:51.077Z,43.26
2023-05-19T18:23:36.424Z,43.52
2023-05-19T18:26:24.360Z,43.75
2023-05-19T18:29:10.873Z,44.01
2023-05-19T18:31:56.125Z,44.31
2023-05-19T18:34:41.461Z,44.53
2023-05-19T18:37:27.001Z,44.95
2023-05-19T18:40:11.988Z,45.11
2023-05-19T18:42:57.258Z,45.50
2023-05-19T18:45:42.723Z,45.56
2023-05-19T18:48:28.060Z,45.70
2023-05-19T18:51:15.710Z,46.20
2023-05-19T18:54:01.355Z,47.14
2023-05-19T18:56:49.977Z,47.78
2023-05-19T18:59:35.386Z,48.19
2023-05-19T19:02:20.615Z,48.37
2023-05-19T19:05:09.415Z,48.90
2023-05-19T19:07:54.931Z,49.24
2023-05-19T19:10:40.714Z,49.37
2023-05-19T19:13:26.169Z,50.20
2023-05-19T19:16:11.292Z,50.11
2023-05-19T19:18:56.885Z,50.32
2023-05-19T19:21:41.896Z,50.64
2023-05-19T19:24:28.417Z,50.64
2023-05-19T19:27:16.184Z,50.93
2023-05-19T19:30:01.796Z,51.14
2023-05-19T19:32:47.445Z,51.28
2023-05-19T19:35:32.942Z,51.45
2023-05-19T19:38:18.053Z,51.95
2023-05-19T19:41:03.759Z,51.99
2023-05-19T19:43:49.217Z,52.37
2023-05-19T19:46:34.581Z,52.39
2023-05-19T19:49:20.297Z,52.82
2023-05-19T19:52:05.978Z,52.62
2023-05-19T19:54:51.306Z,52.70
2023-05-19T19:57:36.819Z,52.97
2023-05-19T20:00:22.444Z,52.97
2023-05-19T20:03:07.787Z,53.10
2023-05-19T20:05:55.632Z,53.46
2023-05-19T20:08:41.427Z,53.50
2023-05-19T20:11:26.807Z,53.71
2023-05-19T20:14:11.944Z,53.92
2023-05-19T20:16:57.478Z,53.83
2023-05-19T20:19:46.974Z,54.06
2023-05-19T20:22:32.426Z,54.11
2023-05-19T20:25:17.806Z,54.52
2023-05-19T20:28:02.887Z,54.72
2023-05-19T20:30:48.142Z,54.73
2023-05-19T20:33:33.264Z,54.49
2023-05-19T20:36:18.661Z,55.12
2023-05-19T20:39:04.251Z,54.59
2023-05-19T20:41:49.362Z,55.30
2023-05-19T20:44:34.854Z,55.28
2023-05-19T20:47:20.919Z,55.33
2023-05-19T20:50:07.490Z,55.64
2023-05-19T20:52:52.689Z,55.79
2023-05-19T20:55:38.738Z,56.21
2023-05-19T20:58:26.692Z,55.96
2023-05-19T21:01:12.537Z,56.01
2023-05-19T21:03:57.783Z,56.75
2023-05-19T21:06:42.973Z,56.23
2023-05-19T21:09:28.358Z,56.43
2023-05-19T21:12:16.097Z,56.77
2023-05-19T21:15:03.505Z,56.56
2023-05-19T21:17:49.174Z,56.90
2023-05-19T21:20:34.749Z,57.10
2023-05-19T21:23:20.338Z,57.21
2023-05-19T21:26:07.151Z,57.19
2023-05-19T21:28:52.741Z,57.77
2023-05-19T21:31:38.411Z,57.80
2023-05-19T21:34:23.610Z,58.00
2023-05-19T21:37:09.179Z,57.80
2023-05-19T21:39:54.294Z,57.91
2023-05-19T21:42:39.426Z,58.17
2023-05-19T21:45:24.511Z,58.23
2023-05-19T21:48:10.021Z,58.48
2023-05-19T21:50:55.740Z,58.48
2023-05-19T21:53:41.234Z,58.62
2023-05-19T21:56:26.463Z,58.84
2023-05-19T21:59:12.040Z,59.14
2023-05-19T22:01:57.160Z,59.03
2023-05-19T22:04:42.932Z,59.25
2023-05-19T22:07:28.572Z,59.39
2023-05-19T22:10:14.208Z,59.58
2023-05-19T22:12:59.483Z,59.69
2023-05-19T22:15:44.953Z,59.63
2023-05-19T22:18:30.303Z,60.34
2023-05-19T22:21:15.941Z,60.32
2023-05-19T22:24:01.196Z,60.66
2023-05-19T22:26:47.257Z,60.68
2023-05-19T22:29:32.877Z,61.13
2023-05-19T22:32:19.455Z,60.69
2023-05-19T22:35:06.494Z,60.98
2023-05-19T22:37:51.779Z,61.29
2023-05-19T22:40:37.248Z,61.32
2023-05-19T22:43:22.478Z,61.47
2023-05-19T22:46:07.921Z,61.60
2023-05-19T22:48:53.147Z,61.87
2023-05-19T22:51:39.310Z,61.52
2023-05-19T22:54:24.653Z,61.65
2023-05-19T22:57:10.335Z,61.78
2023-05-19T22:59:56.008Z,62.07
2023-05-19T23:02:41.791Z,62.34
2023-05-19T23:05:27.264Z,62.63
2023-05-19T23:08:12.861Z,62.57
2023-05-19T23:11:02.303Z,62.43
2023-05-19T23:13:47.582Z,62.79
2023-05-19T23:16:32.791Z,62.54
2023-05-19T23:19:18.160Z,63.05
2023-05-19T23:22:03.801Z,63.22
2023-05-19T23:24:49.067Z,63.48
2023-05-19T23:27:37.619Z,63.83
2023-05-19T23:30:22.771Z,64.10
2023-05-19T23:33:08.163Z,64.45
2023-05-19T23:35:54.062Z,64.91
2023-05-19T23:38:39.321Z,65.00
2023-05-19T23:41:24.875Z,65.48
2023-05-19T23:44:12.598Z,65.12
2023-05-19T23:46:58.067Z,65.31
2023-05-19T23:49:43.441Z,65.49
2023-05-19T23:52:28.461Z,65.19
2023-05-19T23:55:14.964Z,65.45
2023-05-19T23:58:00.210Z,65.40
